الصفحة الرئيسية
METAR-TAF:

METAR-TAF

مطار :

برينديزي, إيطاليا

دائرة عرض: 40-39N, خط طول: 017-57E, ارتفاع: 15 متر

مراقبة الطقس الحالي

تاريخ ووقت الإصدار 32 دقيقة قبل الساعة 01:20UTC
ريح 11 عقدة من الشمال الغربي
درجة الحرارة 24°درجة مئوية
الرطوبة 50%
ضغط 1006 hPa
الرؤية 10 كم أو أكثر

METAR: LIBR 050120Z AUTO 31011KT 9999 NCD 24/13 Q1006

زمن: 03:52 (01:52 UTC)

توقعات

تاريخ ووقت الإصدار 2ساعات و 52 دقيقة قبل الساعة 23:00UTC
التوقعات صالحة من05 الساعة 00 UTC إلى 05 الساعة 24 UTC
ريح 14 عقدة من الشمال الغربي
الرؤية 10 كم أو أكثر
غيوم متفرقة على ارتفاع 3000 قدم
مؤقت
من 05 الساعة 08 UTC إلى 05 الساعة 18 UTC
الرؤية: 4000 متر
عاصفة رعدية, مطر

TAF: LIBR 042300Z 0500/0524 32014KT 9999 SCT030 TEMPO 0508/0518 4000 TSRA

أرصاد الطقس والتوقعات من أكثر من 4000 مطار (تقارير الطقس للمطار METAR والتنبؤ بالطقس بالمطارTAF).

المحطات المتاحة هي النقط الصفراء والحمراء على الخريطة.

حرك المؤشر فوق النقطة لمعرفة اسم المحطة.

ثم انقر لمعرفة أرصاد وتوقعات الطقس.

لتغيير الخارطة: اضغط على الأزرار الخضراء مع رمز الصليب الأسود للتكبير. على الزر الأخضر مع شرطة للتصغير، أو على الأسهم الخضراء للخرائط المجاورة.


METAR-TAF: